MMSD/SJD METAR and TAF weather

Enter ICAO airport designator
Station Type Date Time Source
MMSD METAR 2023/02/04 02:40 UTC NOAA

MMSD 040240Z 30005KT 10SM SKC 18/12 A3006 RMK SLP169 52015 965


Station Type Date Time Source
MMSD Decoded METAR 2023/02/04 02:40 UTC NOAA

San Jose Del Cabo , Mexico (MMSD) 23-09N 109-42W
Feb 03, 2023 - 09:40 PM EST / 2023.02.04 0240 UTC
Wind: from the WNW (300 degrees) at 6 MPH (5 KT):0
Visibility: 10 mile(s):0
Sky conditions: clear
Temperature: 64 F (18 C)
Dew Point: 53 F (12 C)
Relative Humidity: 67%
Pressure (altimeter): 30.06 in. Hg (1017 hPa)
Pressure tendency: 0.04 inches (1.5 hPa) higher than three hours ago
ob: MMSD 040240Z 30005KT 10SM SKC 18/12 A3006 RMK SLP169 52015 965
cycle: 2

Station Type Date Time Source
MMSD TAF 2023/02/03 18:24 UTC NOAA

TAF TAF MMSD 031720Z 0318/0418 03008KT P6SM SCT200
FM032100 17005KT P6SM SKC
FM040300 00000KT P6SM SKC
FM041000 00000KT P6SM SCT200

Example: see airport list